sensor_id;sensor_type;location;lat;lon;timestamp;P1;durP1;ratioP1;P2;durP2;ratioP2
30173;SDS011;16985;50.814;8.530;2023-02-23T00:01:55;28.48;;;16.85;;
30173;SDS011;16985;50.814;8.530;2023-02-23T00:04:22;31.25;;;18.05;;
30173;SDS011;16985;50.814;8.530;2023-02-23T00:06:51;31.73;;;18.23;;
30173;SDS011;16985;50.814;8.530;2023-02-23T00:09:17;29.63;;;18.90;;
30173;SDS011;16985;50.814;8.530;2023-02-23T00:11:51;26.83;;;16.67;;
30173;SDS011;16985;50.814;8.530;2023-02-23T00:14:19;33.15;;;17.00;;
30173;SDS011;16985;50.814;8.530;2023-02-23T00:16:51;28.88;;;18.02;;
30173;SDS011;16985;50.814;8.530;2023-02-23T00:19:18;29.25;;;16.17;;
30173;SDS011;16985;50.814;8.530;2023-02-23T00:21:44;26.08;;;16.05;;
30173;SDS011;16985;50.814;8.530;2023-02-23T00:24:11;27.20;;;16.88;;
30173;SDS011;16985;50.814;8.530;2023-02-23T00:26:43;28.92;;;16.75;;
30173;SDS011;16985;50.814;8.530;2023-02-23T00:31:45;33.30;;;17.65;;
30173;SDS011;16985;50.814;8.530;2023-02-23T00:34:13;29.00;;;18.27;;
30173;SDS011;16985;50.814;8.530;2023-02-23T00:36:45;29.90;;;16.63;;
30173;SDS011;16985;50.814;8.530;2023-02-23T00:39:14;28.98;;;18.38;;
30173;SDS011;16985;50.814;8.530;2023-02-23T00:41:47;33.75;;;19.05;;
30173;SDS011;16985;50.814;8.530;2023-02-23T00:44:14;31.42;;;17.83;;
30173;SDS011;16985;50.814;8.530;2023-02-23T00:46:40;28.45;;;16.88;;
30173;SDS011;16985;50.814;8.530;2023-02-23T00:49:08;30.20;;;17.90;;
30173;SDS011;16985;50.814;8.530;2023-02-23T00:51:37;35.25;;;19.13;;
30173;SDS011;16985;50.814;8.530;2023-02-23T00:54:03;33.72;;;19.20;;
30173;SDS011;16985;50.814;8.530;2023-02-23T00:56:31;29.83;;;18.33;;
30173;SDS011;16985;50.814;8.530;2023-02-23T00:58:56;31.05;;;18.05;;
30173;SDS011;16985;50.814;8.530;2023-02-23T01:01:24;28.65;;;17.88;;
30173;SDS011;16985;50.814;8.530;2023-02-23T01:03:50;29.95;;;17.83;;
30173;SDS011;16985;50.814;8.530;2023-02-23T01:06:19;30.48;;;17.83;;
30173;SDS011;16985;50.814;8.530;2023-02-23T01:08:46;30.50;;;17.20;;
30173;SDS011;16985;50.814;8.530;2023-02-23T01:11:16;25.80;;;17.13;;
30173;SDS011;16985;50.814;8.530;2023-02-23T01:13:45;34.47;;;20.70;;
30173;SDS011;16985;50.814;8.530;2023-02-23T01:16:14;47.83;;;22.95;;
30173;SDS011;16985;50.814;8.530;2023-02-23T01:18:42;48.00;;;25.33;;
30173;SDS011;16985;50.814;8.530;2023-02-23T01:21:13;50.42;;;24.33;;
30173;SDS011;16985;50.814;8.530;2023-02-23T01:23:40;74.30;;;33.08;;
30173;SDS011;16985;50.814;8.530;2023-02-23T01:26:13;100.72;;;43.70;;
30173;SDS011;16985;50.814;8.530;2023-02-23T01:28:47;88.72;;;37.83;;
30173;SDS011;16985;50.814;8.530;2023-02-23T01:31:16;88.53;;;39.05;;
30173;SDS011;16985;50.814;8.530;2023-02-23T01:33:43;85.90;;;37.83;;
30173;SDS011;16985;50.814;8.530;2023-02-23T01:36:10;79.72;;;36.15;;
30173;SDS011;16985;50.814;8.530;2023-02-23T01:38:38;72.20;;;33.80;;
30173;SDS011;16985;50.814;8.530;2023-02-23T01:41:04;68.03;;;32.13;;
30173;SDS011;16985;50.814;8.530;2023-02-23T01:43:31;62.42;;;28.65;;
30173;SDS011;16985;50.814;8.530;2023-02-23T01:45:57;61.88;;;29.60;;
30173;SDS011;16985;50.814;8.530;2023-02-23T01:48:27;61.67;;;28.90;;
30173;SDS011;16985;50.814;8.530;2023-02-23T01:51:00;48.80;;;25.42;;
30173;SDS011;16985;50.814;8.530;2023-02-23T01:53:43;47.10;;;24.02;;
30173;SDS011;16985;50.814;8.530;2023-02-23T01:56:26;42.90;;;23.05;;
30173;SDS011;16985;50.814;8.530;2023-02-23T01:59:00;50.75;;;25.85;;
30173;SDS011;16985;50.814;8.530;2023-02-23T02:01:30;42.83;;;22.88;;
30173;SDS011;16985;50.814;8.530;2023-02-23T02:03:57;46.63;;;22.80;;
30173;SDS011;16985;50.814;8.530;2023-02-23T02:06:30;43.85;;;21.77;;
30173;SDS011;16985;50.814;8.530;2023-02-23T02:09:00;34.45;;;20.77;;
30173;SDS011;16985;50.814;8.530;2023-02-23T02:11:34;36.50;;;20.77;;
30173;SDS011;16985;50.814;8.530;2023-02-23T02:19:58;32.95;;;19.48;;
30173;SDS011;16985;50.814;8.530;2023-02-23T02:22:56;36.72;;;20.48;;
30173;SDS011;16985;50.814;8.530;2023-02-23T02:29:05;33.20;;;18.75;;
30173;SDS011;16985;50.814;8.530;2023-02-23T02:40:45;33.97;;;19.90;;
30173;SDS011;16985;50.814;8.530;2023-02-23T02:43:31;34.00;;;19.58;;
30173;SDS011;16985;50.814;8.530;2023-02-23T02:46:37;30.98;;;19.20;;
30173;SDS011;16985;50.814;8.530;2023-02-23T02:49:11;33.55;;;19.15;;
30173;SDS011;16985;50.814;8.530;2023-02-23T02:52:18;30.92;;;18.45;;
30173;SDS011;16985;50.814;8.530;2023-02-23T02:55:02;34.00;;;19.75;;
30173;SDS011;16985;50.814;8.530;2023-02-23T02:57:36;30.67;;;18.25;;
30173;SDS011;16985;50.814;8.530;2023-02-23T03:00:03;32.50;;;19.10;;
30173;SDS011;16985;50.814;8.530;2023-02-23T03:02:48;28.65;;;18.48;;
30173;SDS011;16985;50.814;8.530;2023-02-23T03:05:40;33.58;;;19.40;;
30173;SDS011;16985;50.814;8.530;2023-02-23T03:11:34;33.85;;;18.83;;
30173;SDS011;16985;50.814;8.530;2023-02-23T03:17:34;30.83;;;19.20;;
30173;SDS011;16985;50.814;8.530;2023-02-23T03:37:01;32.05;;;18.58;;
30173;SDS011;16985;50.814;8.530;2023-02-23T03:40:03;31.17;;;18.30;;
30173;SDS011;16985;50.814;8.530;2023-02-23T03:42:57;30.20;;;18.80;;
30173;SDS011;16985;50.814;8.530;2023-02-23T03:45:44;32.17;;;19.20;;
30173;SDS011;16985;50.814;8.530;2023-02-23T03:48:33;31.05;;;19.45;;
30173;SDS011;16985;50.814;8.530;2023-02-23T03:51:19;29.05;;;19.25;;
30173;SDS011;16985;50.814;8.530;2023-02-23T03:54:15;32.10;;;18.10;;
30173;SDS011;16985;50.814;8.530;2023-02-23T03:57:09;32.90;;;18.27;;
30173;SDS011;16985;50.814;8.530;2023-02-23T03:59:59;30.85;;;18.90;;
30173;SDS011;16985;50.814;8.530;2023-02-23T04:02:48;27.52;;;17.40;;
30173;SDS011;16985;50.814;8.530;2023-02-23T04:05:36;28.63;;;18.27;;
30173;SDS011;16985;50.814;8.530;2023-02-23T04:08:24;32.72;;;17.75;;
30173;SDS011;16985;50.814;8.530;2023-02-23T04:14:30;36.13;;;18.63;;
30173;SDS011;16985;50.814;8.530;2023-02-23T04:17:35;29.65;;;17.17;;
30173;SDS011;16985;50.814;8.530;2023-02-23T04:20:01;31.52;;;18.90;;
30173;SDS011;16985;50.814;8.530;2023-02-23T04:22:27;28.60;;;17.95;;
30173;SDS011;16985;50.814;8.530;2023-02-23T04:24:53;31.30;;;18.10;;
30173;SDS011;16985;50.814;8.530;2023-02-23T04:27:19;32.63;;;18.55;;
30173;SDS011;16985;50.814;8.530;2023-02-23T04:29:45;34.38;;;18.58;;
30173;SDS011;16985;50.814;8.530;2023-02-23T04:32:15;26.77;;;17.27;;
30173;SDS011;16985;50.814;8.530;2023-02-23T04:34:43;28.48;;;18.17;;
30173;SDS011;16985;50.814;8.530;2023-02-23T04:37:10;30.30;;;19.08;;
30173;SDS011;16985;50.814;8.530;2023-02-23T04:39:37;32.42;;;20.42;;
30173;SDS011;16985;50.814;8.530;2023-02-23T04:42:03;29.77;;;17.80;;
30173;SDS011;16985;50.814;8.530;2023-02-23T04:44:29;28.67;;;17.70;;
30173;SDS011;16985;50.814;8.530;2023-02-23T04:46:56;27.52;;;17.98;;
30173;SDS011;16985;50.814;8.530;2023-02-23T04:49:22;28.67;;;18.48;;
30173;SDS011;16985;50.814;8.530;2023-02-23T04:51:48;30.35;;;17.38;;
30173;SDS011;16985;50.814;8.530;2023-02-23T04:54:14;30.50;;;17.38;;
30173;SDS011;16985;50.814;8.530;2023-02-23T04:56:40;30.65;;;19.20;;
30173;SDS011;16985;50.814;8.530;2023-02-23T04:59:05;30.10;;;18.55;;
30173;SDS011;16985;50.814;8.530;2023-02-23T05:01:31;30.70;;;18.33;;
30173;SDS011;16985;50.814;8.530;2023-02-23T05:03:57;25.90;;;17.20;;
30173;SDS011;16985;50.814;8.530;2023-02-23T05:06:24;32.60;;;18.88;;
30173;SDS011;16985;50.814;8.530;2023-02-23T05:08:50;25.63;;;17.75;;
30173;SDS011;16985;50.814;8.530;2023-02-23T05:11:16;29.30;;;17.95;;
30173;SDS011;16985;50.814;8.530;2023-02-23T05:13:42;28.45;;;17.88;;
30173;SDS011;16985;50.814;8.530;2023-02-23T05:16:08;30.02;;;17.60;;
30173;SDS011;16985;50.814;8.530;2023-02-23T05:18:34;32.13;;;18.55;;
30173;SDS011;16985;50.814;8.530;2023-02-23T05:21:01;29.02;;;18.25;;
30173;SDS011;16985;50.814;8.530;2023-02-23T05:23:29;29.63;;;17.85;;
30173;SDS011;16985;50.814;8.530;2023-02-23T05:25:59;28.13;;;19.08;;
30173;SDS011;16985;50.814;8.530;2023-02-23T05:28:33;31.60;;;18.63;;
30173;SDS011;16985;50.814;8.530;2023-02-23T05:31:01;34.28;;;17.75;;
30173;SDS011;16985;50.814;8.530;2023-02-23T05:33:28;29.58;;;18.25;;
30173;SDS011;16985;50.814;8.530;2023-02-23T05:35:57;30.13;;;20.58;;
30173;SDS011;16985;50.814;8.530;2023-02-23T05:38:24;31.05;;;18.52;;
30173;SDS011;16985;50.814;8.530;2023-02-23T05:40:51;30.40;;;18.30;;
30173;SDS011;16985;50.814;8.530;2023-02-23T05:43:17;28.30;;;18.02;;
30173;SDS011;16985;50.814;8.530;2023-02-23T05:45:43;28.77;;;18.23;;
30173;SDS011;16985;50.814;8.530;2023-02-23T05:48:10;26.70;;;17.42;;
30173;SDS011;16985;50.814;8.530;2023-02-23T05:50:36;29.55;;;18.92;;
30173;SDS011;16985;50.814;8.530;2023-02-23T05:53:03;29.70;;;17.80;;
30173;SDS011;16985;50.814;8.530;2023-02-23T05:55:29;30.95;;;17.73;;
30173;SDS011;16985;50.814;8.530;2023-02-23T05:57:55;26.20;;;16.92;;
30173;SDS011;16985;50.814;8.530;2023-02-23T06:00:21;28.52;;;18.70;;
30173;SDS011;16985;50.814;8.530;2023-02-23T06:02:47;29.17;;;17.33;;
30173;SDS011;16985;50.814;8.530;2023-02-23T06:05:16;30.67;;;18.58;;
30173;SDS011;16985;50.814;8.530;2023-02-23T06:07:42;28.27;;;17.45;;
30173;SDS011;16985;50.814;8.530;2023-02-23T06:10:08;26.50;;;16.73;;
30173;SDS011;16985;50.814;8.530;2023-02-23T06:12:35;32.03;;;17.48;;
30173;SDS011;16985;50.814;8.530;2023-02-23T06:15:00;29.75;;;18.60;;
30173;SDS011;16985;50.814;8.530;2023-02-23T06:17:26;31.17;;;19.20;;
30173;SDS011;16985;50.814;8.530;2023-02-23T06:19:52;33.58;;;17.95;;
30173;SDS011;16985;50.814;8.530;2023-02-23T06:22:18;31.52;;;18.35;;
30173;SDS011;16985;50.814;8.530;2023-02-23T06:24:44;29.33;;;17.58;;
30173;SDS011;16985;50.814;8.530;2023-02-23T06:27:09;31.10;;;18.95;;
30173;SDS011;16985;50.814;8.530;2023-02-23T06:29:36;30.92;;;17.83;;
30173;SDS011;16985;50.814;8.530;2023-02-23T06:32:02;34.83;;;18.88;;
30173;SDS011;16985;50.814;8.530;2023-02-23T06:34:29;29.23;;;18.25;;
30173;SDS011;16985;50.814;8.530;2023-02-23T06:36:56;29.40;;;18.30;;
30173;SDS011;16985;50.814;8.530;2023-02-23T06:39:22;28.67;;;17.67;;
30173;SDS011;16985;50.814;8.530;2023-02-23T06:41:48;26.15;;;16.85;;
30173;SDS011;16985;50.814;8.530;2023-02-23T06:44:14;27.73;;;16.83;;
30173;SDS011;16985;50.814;8.530;2023-02-23T06:46:40;30.92;;;18.05;;
30173;SDS011;16985;50.814;8.530;2023-02-23T06:49:05;30.42;;;18.08;;
30173;SDS011;16985;50.814;8.530;2023-02-23T06:51:31;27.35;;;17.50;;
30173;SDS011;16985;50.814;8.530;2023-02-23T06:53:57;27.90;;;17.80;;
30173;SDS011;16985;50.814;8.530;2023-02-23T06:56:23;27.20;;;16.25;;
30173;SDS011;16985;50.814;8.530;2023-02-23T06:58:49;29.50;;;18.58;;
30173;SDS011;16985;50.814;8.530;2023-02-23T07:01:15;28.02;;;19.08;;
30173;SDS011;16985;50.814;8.530;2023-02-23T07:03:42;29.15;;;18.63;;
30173;SDS011;16985;50.814;8.530;2023-02-23T07:06:08;33.92;;;19.17;;
30173;SDS011;16985;50.814;8.530;2023-02-23T07:08:34;27.50;;;17.63;;
30173;SDS011;16985;50.814;8.530;2023-02-23T07:11:04;30.80;;;19.17;;
30173;SDS011;16985;50.814;8.530;2023-02-23T07:13:34;27.40;;;18.23;;
30173;SDS011;16985;50.814;8.530;2023-02-23T07:16:01;33.05;;;18.73;;
30173;SDS011;16985;50.814;8.530;2023-02-23T07:18:27;31.77;;;19.55;;
30173;SDS011;16985;50.814;8.530;2023-02-23T07:20:53;34.33;;;18.60;;
30173;SDS011;16985;50.814;8.530;2023-02-23T07:23:19;32.33;;;18.60;;
30173;SDS011;16985;50.814;8.530;2023-02-23T07:25:48;32.60;;;18.75;;
30173;SDS011;16985;50.814;8.530;2023-02-23T07:28:19;30.60;;;18.92;;
30173;SDS011;16985;50.814;8.530;2023-02-23T07:30:45;27.92;;;19.95;;
30173;SDS011;16985;50.814;8.530;2023-02-23T07:33:11;38.85;;;19.25;;
30173;SDS011;16985;50.814;8.530;2023-02-23T07:35:37;28.92;;;19.50;;
30173;SDS011;16985;50.814;8.530;2023-02-23T07:38:03;29.25;;;17.60;;
30173;SDS011;16985;50.814;8.530;2023-02-23T07:40:29;32.13;;;19.95;;
30173;SDS011;16985;50.814;8.530;2023-02-23T07:42:55;34.10;;;19.50;;
30173;SDS011;16985;50.814;8.530;2023-02-23T07:45:21;29.77;;;18.92;;
30173;SDS011;16985;50.814;8.530;2023-02-23T07:47:48;41.03;;;20.67;;
30173;SDS011;16985;50.814;8.530;2023-02-23T07:50:14;26.83;;;17.30;;
30173;SDS011;16985;50.814;8.530;2023-02-23T07:52:41;27.33;;;17.75;;
30173;SDS011;16985;50.814;8.530;2023-02-23T07:55:09;37.85;;;20.27;;
30173;SDS011;16985;50.814;8.530;2023-02-23T07:57:35;42.55;;;22.13;;
30173;SDS011;16985;50.814;8.530;2023-02-23T08:00:02;40.53;;;22.27;;
30173;SDS011;16985;50.814;8.530;2023-02-23T08:02:37;41.70;;;23.85;;
30173;SDS011;16985;50.814;8.530;2023-02-23T08:05:04;40.47;;;23.85;;
30173;SDS011;16985;50.814;8.530;2023-02-23T08:07:31;34.70;;;21.90;;
30173;SDS011;16985;50.814;8.530;2023-02-23T08:09:57;41.60;;;22.63;;
30173;SDS011;16985;50.814;8.530;2023-02-23T08:12:23;48.40;;;27.08;;
30173;SDS011;16985;50.814;8.530;2023-02-23T08:14:49;41.17;;;22.10;;
30173;SDS011;16985;50.814;8.530;2023-02-23T08:17:15;39.08;;;23.88;;
30173;SDS011;16985;50.814;8.530;2023-02-23T08:19:41;48.42;;;25.05;;
30173;SDS011;16985;50.814;8.530;2023-02-23T08:22:07;39.42;;;23.17;;
30173;SDS011;16985;50.814;8.530;2023-02-23T08:24:33;40.25;;;23.92;;
30173;SDS011;16985;50.814;8.530;2023-02-23T08:27:00;48.05;;;24.80;;
30173;SDS011;16985;50.814;8.530;2023-02-23T08:29:27;39.95;;;22.75;;
30173;SDS011;16985;50.814;8.530;2023-02-23T08:31:53;43.17;;;24.27;;
30173;SDS011;16985;50.814;8.530;2023-02-23T08:34:20;44.03;;;24.45;;
30173;SDS011;16985;50.814;8.530;2023-02-23T08:36:47;43.95;;;24.98;;
30173;SDS011;16985;50.814;8.530;2023-02-23T08:39:13;46.28;;;25.05;;
30173;SDS011;16985;50.814;8.530;2023-02-23T08:41:40;44.83;;;24.70;;
30173;SDS011;16985;50.814;8.530;2023-02-23T08:44:06;51.17;;;26.95;;
30173;SDS011;16985;50.814;8.530;2023-02-23T08:46:32;55.08;;;26.42;;
30173;SDS011;16985;50.814;8.530;2023-02-23T08:48:58;48.13;;;25.95;;
30173;SDS011;16985;50.814;8.530;2023-02-23T08:51:24;45.17;;;24.52;;
30173;SDS011;16985;50.814;8.530;2023-02-23T08:53:50;44.40;;;27.27;;
30173;SDS011;16985;50.814;8.530;2023-02-23T08:56:16;45.13;;;25.80;;
30173;SDS011;16985;50.814;8.530;2023-02-23T08:58:42;49.90;;;26.33;;
30173;SDS011;16985;50.814;8.530;2023-02-23T09:01:14;43.20;;;25.58;;
30173;SDS011;16985;50.814;8.530;2023-02-23T09:03:42;51.58;;;27.30;;
30173;SDS011;16985;50.814;8.530;2023-02-23T09:06:10;42.90;;;26.58;;
30173;SDS011;16985;50.814;8.530;2023-02-23T09:08:40;47.38;;;26.70;;
30173;SDS011;16985;50.814;8.530;2023-02-23T09:11:06;48.15;;;26.02;;
30173;SDS011;16985;50.814;8.530;2023-02-23T09:13:31;45.60;;;25.67;;
30173;SDS011;16985;50.814;8.530;2023-02-23T09:15:58;44.17;;;26.92;;
30173;SDS011;16985;50.814;8.530;2023-02-23T09:18:24;45.17;;;27.10;;
30173;SDS011;16985;50.814;8.530;2023-02-23T09:20:53;47.15;;;27.02;;
30173;SDS011;16985;50.814;8.530;2023-02-23T09:23:19;50.47;;;26.95;;
30173;SDS011;16985;50.814;8.530;2023-02-23T09:25:45;48.10;;;27.58;;
30173;SDS011;16985;50.814;8.530;2023-02-23T09:28:15;46.25;;;26.63;;
30173;SDS011;16985;50.814;8.530;2023-02-23T09:30:43;49.40;;;26.73;;
30173;SDS011;16985;50.814;8.530;2023-02-23T09:33:10;52.42;;;28.45;;
30173;SDS011;16985;50.814;8.530;2023-02-23T09:35:37;49.13;;;26.70;;
30173;SDS011;16985;50.814;8.530;2023-02-23T09:38:04;51.17;;;27.27;;
30173;SDS011;16985;50.814;8.530;2023-02-23T09:40:48;55.95;;;29.58;;
30173;SDS011;16985;50.814;8.530;2023-02-23T09:46:02;48.90;;;28.08;;
30173;SDS011;16985;50.814;8.530;2023-02-23T09:48:53;52.97;;;26.45;;
30173;SDS011;16985;50.814;8.530;2023-02-23T09:51:23;50.95;;;28.15;;
30173;SDS011;16985;50.814;8.530;2023-02-23T09:53:50;51.55;;;27.77;;
30173;SDS011;16985;50.814;8.530;2023-02-23T09:56:37;50.95;;;27.65;;
30173;SDS011;16985;50.814;8.530;2023-02-23T09:59:13;47.42;;;26.35;;
30173;SDS011;16985;50.814;8.530;2023-02-23T10:04:42;47.45;;;26.98;;
30173;SDS011;16985;50.814;8.530;2023-02-23T10:15:27;39.67;;;22.63;;
30173;SDS011;16985;50.814;8.530;2023-02-23T10:21:05;26.35;;;17.77;;
30173;SDS011;16985;50.814;8.530;2023-02-23T10:26:16;25.00;;;15.80;;
30173;SDS011;16985;50.814;8.530;2023-02-23T10:28:46;23.63;;;15.52;;
30173;SDS011;16985;50.814;8.530;2023-02-23T10:31:30;24.95;;;15.20;;
30173;SDS011;16985;50.814;8.530;2023-02-23T10:34:05;23.48;;;14.00;;
30173;SDS011;16985;50.814;8.530;2023-02-23T10:36:50;22.77;;;14.07;;
30173;SDS011;16985;50.814;8.530;2023-02-23T10:39:27;25.75;;;14.00;;
30173;SDS011;16985;50.814;8.530;2023-02-23T10:41:55;43.13;;;20.85;;
30173;SDS011;16985;50.814;8.530;2023-02-23T10:44:28;34.05;;;18.13;;
30173;SDS011;16985;50.814;8.530;2023-02-23T10:46:58;27.17;;;16.42;;
30173;SDS011;16985;50.814;8.530;2023-02-23T10:49:49;39.97;;;16.75;;
30173;SDS011;16985;50.814;8.530;2023-02-23T10:52:28;29.02;;;17.17;;
30173;SDS011;16985;50.814;8.530;2023-02-23T10:54:59;26.85;;;13.90;;
30173;SDS011;16985;50.814;8.530;2023-02-23T10:57:31;25.08;;;15.45;;
30173;SDS011;16985;50.814;8.530;2023-02-23T11:02:51;25.98;;;13.88;;
30173;SDS011;16985;50.814;8.530;2023-02-23T11:05:32;20.05;;;13.15;;
30173;SDS011;16985;50.814;8.530;2023-02-23T11:13:23;17.77;;;12.02;;
30173;SDS011;16985;50.814;8.530;2023-02-23T11:16:00;17.67;;;11.27;;
30173;SDS011;16985;50.814;8.530;2023-02-23T11:18:34;17.48;;;10.63;;
30173;SDS011;16985;50.814;8.530;2023-02-23T11:21:01;17.23;;;11.37;;
30173;SDS011;16985;50.814;8.530;2023-02-23T11:23:36;21.08;;;11.98;;
30173;SDS011;16985;50.814;8.530;2023-02-23T11:28:55;14.88;;;10.23;;
30173;SDS011;16985;50.814;8.530;2023-02-23T11:31:35;12.98;;;9.70;;
30173;SDS011;16985;50.814;8.530;2023-02-23T11:34:01;12.98;;;8.70;;
30173;SDS011;16985;50.814;8.530;2023-02-23T11:41:44;11.73;;;9.15;;
30173;SDS011;16985;50.814;8.530;2023-02-23T11:44:20;12.23;;;8.70;;
30173;SDS011;16985;50.814;8.530;2023-02-23T11:46:48;12.38;;;8.52;;
30173;SDS011;16985;50.814;8.530;2023-02-23T11:49:24;11.65;;;8.23;;
30173;SDS011;16985;50.814;8.530;2023-02-23T11:51:55;12.38;;;9.10;;
30173;SDS011;16985;50.814;8.530;2023-02-23T11:54:28;14.47;;;9.13;;
30173;SDS011;16985;50.814;8.530;2023-02-23T11:56:57;12.90;;;8.90;;
30173;SDS011;16985;50.814;8.530;2023-02-23T11:59:34;12.20;;;9.10;;
30173;SDS011;16985;50.814;8.530;2023-02-23T12:02:18;15.07;;;8.70;;
30173;SDS011;16985;50.814;8.530;2023-02-23T12:04:52;11.88;;;8.45;;
30173;SDS011;16985;50.814;8.530;2023-02-23T12:10:18;11.55;;;8.27;;
30173;SDS011;16985;50.814;8.530;2023-02-23T12:15:51;12.02;;;7.97;;
30173;SDS011;16985;50.814;8.530;2023-02-23T12:27:22;9.40;;;7.40;;
30173;SDS011;16985;50.814;8.530;2023-02-23T12:32:47;8.82;;;6.85;;
30173;SDS011;16985;50.814;8.530;2023-02-23T12:35:29;11.63;;;7.85;;
30173;SDS011;16985;50.814;8.530;2023-02-23T12:38:28;12.18;;;7.72;;
30173;SDS011;16985;50.814;8.530;2023-02-23T12:41:12;9.88;;;7.28;;
30173;SDS011;16985;50.814;8.530;2023-02-23T12:43:54;10.80;;;7.80;;
30173;SDS011;16985;50.814;8.530;2023-02-23T12:46:29;12.50;;;9.40;;
30173;SDS011;16985;50.814;8.530;2023-02-23T12:49:13;16.98;;;9.82;;
30173;SDS011;16985;50.814;8.530;2023-02-23T12:52:03;15.93;;;11.18;;
30173;SDS011;16985;50.814;8.530;2023-02-23T12:54:46;18.55;;;11.63;;
30173;SDS011;16985;50.814;8.530;2023-02-23T12:57:34;18.45;;;11.73;;
30173;SDS011;16985;50.814;8.530;2023-02-23T13:00:24;20.95;;;13.20;;
30173;SDS011;16985;50.814;8.530;2023-02-23T13:09:29;18.92;;;13.15;;
30173;SDS011;16985;50.814;8.530;2023-02-23T13:18:28;17.45;;;13.00;;
30173;SDS011;16985;50.814;8.530;2023-02-23T13:32:10;23.65;;;15.77;;
30173;SDS011;16985;50.814;8.530;2023-02-23T13:34:41;31.45;;;19.30;;
30173;SDS011;16985;50.814;8.530;2023-02-23T13:37:24;28.15;;;18.25;;
30173;SDS011;16985;50.814;8.530;2023-02-23T13:51:29;25.83;;;16.25;;
30173;SDS011;16985;50.814;8.530;2023-02-23T13:56:31;26.50;;;16.60;;
30173;SDS011;16985;50.814;8.530;2023-02-23T13:59:07;26.92;;;16.20;;
30173;SDS011;16985;50.814;8.530;2023-02-23T14:01:44;28.77;;;17.35;;
30173;SDS011;16985;50.814;8.530;2023-02-23T14:04:13;33.72;;;18.75;;
30173;SDS011;16985;50.814;8.530;2023-02-23T14:09:37;28.00;;;17.13;;
30173;SDS011;16985;50.814;8.530;2023-02-23T14:12:12;32.83;;;16.90;;
30173;SDS011;16985;50.814;8.530;2023-02-23T14:14:44;26.23;;;16.52;;
30173;SDS011;16985;50.814;8.530;2023-02-23T14:19:43;32.00;;;18.23;;
30173;SDS011;16985;50.814;8.530;2023-02-23T14:22:49;35.10;;;19.83;;
30173;SDS011;16985;50.814;8.530;2023-02-23T14:25:48;36.90;;;21.15;;
30173;SDS011;16985;50.814;8.530;2023-02-23T14:28:35;36.80;;;21.42;;
30173;SDS011;16985;50.814;8.530;2023-02-23T14:39:05;38.10;;;20.77;;
30173;SDS011;16985;50.814;8.530;2023-02-23T14:44:25;32.58;;;17.73;;
30173;SDS011;16985;50.814;8.530;2023-02-23T14:47:05;30.75;;;17.17;;
30173;SDS011;16985;50.814;8.530;2023-02-23T14:49:37;29.42;;;16.73;;
30173;SDS011;16985;50.814;8.530;2023-02-23T14:54:46;24.90;;;15.23;;
30173;SDS011;16985;50.814;8.530;2023-02-23T15:02:22;24.83;;;11.85;;
30173;SDS011;16985;50.814;8.530;2023-02-23T15:04:51;18.92;;;10.82;;
30173;SDS011;16985;50.814;8.530;2023-02-23T15:09:55;20.42;;;9.10;;
30173;SDS011;16985;50.814;8.530;2023-02-23T15:12:24;15.68;;;9.27;;
30173;SDS011;16985;50.814;8.530;2023-02-23T15:14:58;18.83;;;9.20;;
30173;SDS011;16985;50.814;8.530;2023-02-23T15:17:28;18.75;;;8.73;;
30173;SDS011;16985;50.814;8.530;2023-02-23T15:20:06;14.82;;;7.85;;
30173;SDS011;16985;50.814;8.530;2023-02-23T15:22:39;16.33;;;8.68;;
30173;SDS011;16985;50.814;8.530;2023-02-23T15:25:16;15.20;;;8.18;;
30173;SDS011;16985;50.814;8.530;2023-02-23T15:27:46;13.65;;;7.85;;
30173;SDS011;16985;50.814;8.530;2023-02-23T15:33:03;12.20;;;7.25;;
30173;SDS011;16985;50.814;8.530;2023-02-23T15:35:39;14.27;;;7.50;;
30173;SDS011;16985;50.814;8.530;2023-02-23T15:38:18;12.38;;;6.53;;
30173;SDS011;16985;50.814;8.530;2023-02-23T15:40:58;9.55;;;6.10;;
30173;SDS011;16985;50.814;8.530;2023-02-23T15:43:27;12.18;;;6.40;;
30173;SDS011;16985;50.814;8.530;2023-02-23T15:45:54;17.25;;;7.70;;
30173;SDS011;16985;50.814;8.530;2023-02-23T15:48:25;10.88;;;7.15;;
30173;SDS011;16985;50.814;8.530;2023-02-23T15:51:19;13.15;;;6.97;;
30173;SDS011;16985;50.814;8.530;2023-02-23T15:54:23;19.52;;;8.65;;
30173;SDS011;16985;50.814;8.530;2023-02-23T15:57:06;13.70;;;7.40;;
30173;SDS011;16985;50.814;8.530;2023-02-23T15:59:44;13.88;;;8.02;;
30173;SDS011;16985;50.814;8.530;2023-02-23T16:02:16;12.90;;;7.95;;
30173;SDS011;16985;50.814;8.530;2023-02-23T16:04:44;15.07;;;8.38;;
30173;SDS011;16985;50.814;8.530;2023-02-23T16:07:18;13.75;;;8.70;;
30173;SDS011;16985;50.814;8.530;2023-02-23T16:12:28;17.17;;;10.20;;
30173;SDS011;16985;50.814;8.530;2023-02-23T16:20:12;18.73;;;9.93;;
30173;SDS011;16985;50.814;8.530;2023-02-23T16:22:53;20.88;;;10.38;;
30173;SDS011;16985;50.814;8.530;2023-02-23T16:25:20;20.73;;;10.82;;
30173;SDS011;16985;50.814;8.530;2023-02-23T16:27:52;23.23;;;11.15;;
30173;SDS011;16985;50.814;8.530;2023-02-23T16:33:13;24.27;;;13.65;;
30173;SDS011;16985;50.814;8.530;2023-02-23T16:35:51;23.70;;;12.70;;
30173;SDS011;16985;50.814;8.530;2023-02-23T16:38:33;26.77;;;13.90;;
30173;SDS011;16985;50.814;8.530;2023-02-23T16:41:22;22.98;;;13.80;;
30173;SDS011;16985;50.814;8.530;2023-02-23T16:43:52;25.38;;;13.82;;
30173;SDS011;16985;50.814;8.530;2023-02-23T16:46:22;26.45;;;14.10;;
30173;SDS011;16985;50.814;8.530;2023-02-23T16:48:51;25.63;;;14.25;;
30173;SDS011;16985;50.814;8.530;2023-02-23T16:51:18;21.90;;;13.55;;
30173;SDS011;16985;50.814;8.530;2023-02-23T16:53:49;28.00;;;15.85;;
30173;SDS011;16985;50.814;8.530;2023-02-23T16:56:16;24.65;;;15.13;;
30173;SDS011;16985;50.814;8.530;2023-02-23T16:58:46;25.60;;;15.32;;
30173;SDS011;16985;50.814;8.530;2023-02-23T17:01:16;28.80;;;15.40;;
30173;SDS011;16985;50.814;8.530;2023-02-23T17:03:42;31.02;;;15.27;;
30173;SDS011;16985;50.814;8.530;2023-02-23T17:08:37;30.05;;;15.45;;
30173;SDS011;16985;50.814;8.530;2023-02-23T17:11:03;28.33;;;15.77;;
30173;SDS011;16985;50.814;8.530;2023-02-23T17:13:30;25.38;;;15.73;;
30173;SDS011;16985;50.814;8.530;2023-02-23T17:15:58;27.42;;;16.33;;
30173;SDS011;16985;50.814;8.530;2023-02-23T17:18:31;26.88;;;15.18;;
30173;SDS011;16985;50.814;8.530;2023-02-23T17:21:01;28.17;;;15.82;;
30173;SDS011;16985;50.814;8.530;2023-02-23T17:23:32;26.60;;;15.60;;
30173;SDS011;16985;50.814;8.530;2023-02-23T17:26:15;29.70;;;16.13;;
30173;SDS011;16985;50.814;8.530;2023-02-23T17:28:49;34.60;;;16.85;;
30173;SDS011;16985;50.814;8.530;2023-02-23T17:31:16;29.20;;;16.33;;
30173;SDS011;16985;50.814;8.530;2023-02-23T17:33:43;34.58;;;19.92;;
30173;SDS011;16985;50.814;8.530;2023-02-23T17:36:11;38.60;;;21.13;;
30173;SDS011;16985;50.814;8.530;2023-02-23T17:38:41;39.50;;;21.50;;
30173;SDS011;16985;50.814;8.530;2023-02-23T17:41:09;43.70;;;22.85;;
30173;SDS011;16985;50.814;8.530;2023-02-23T17:43:42;41.65;;;21.55;;
30173;SDS011;16985;50.814;8.530;2023-02-23T17:46:08;39.15;;;21.73;;
30173;SDS011;16985;50.814;8.530;2023-02-23T17:48:35;50.00;;;25.05;;
30173;SDS011;16985;50.814;8.530;2023-02-23T17:51:05;43.95;;;23.02;;
30173;SDS011;16985;50.814;8.530;2023-02-23T17:53:36;44.45;;;23.38;;